Time;durP1;ratioP1;P1;durP2;ratioP2;P2;SDS_P1;SDS_P2;PMS_P1;PMS_P2;Temp;Humidity;BMP_temperature;BMP_pressure;BME280_temperature;BME280_humidity;BME280_pressure;Samples;Min_cycle;Max_cycle;Signal;HPM_P1;HPM_P2
2021/08/25 00:00:43;;;;;;;6.70;3.80;;;;;;;12.36;93.52;102189.22;4961509;28;20509;-85
2021/08/25 00:03:09;;;;;;;7.43;4.43;;;;;;;12.26;93.23;102189.25;4946722;28;20740;-84
2021/08/25 00:05:34;;;;;;;6.40;4.05;;;;;;;12.19;94.00;102194.31;4960359;28;20503;-83
2021/08/25 00:08:00;;;;;;;8.20;4.70;;;;;;;12.25;94.33;102198.28;4962760;28;20051;-83
2021/08/25 00:10:25;;;;;;;7.95;4.47;;;;;;;12.15;93.99;102200.13;4959504;28;20420;-84
2021/08/25 00:12:51;;;;;;;8.30;4.28;;;;;;;12.20;94.45;102195.19;4959463;28;20102;-82
2021/08/25 00:15:16;;;;;;;7.40;4.45;;;;;;;12.19;94.26;102204.22;4961953;28;20156;-85
2021/08/25 00:17:41;;;;;;;7.32;4.20;;;;;;;12.09;93.64;102200.69;4949718;28;20166;-85
2021/08/25 00:20:07;;;;;;;7.53;4.78;;;;;;;12.00;94.13;102205.09;4959737;28;20051;-83
2021/08/25 00:22:33;;;;;;;5.55;3.95;;;;;;;11.93;94.66;102193.16;4962285;28;20038;-82
2021/08/25 00:24:58;;;;;;;8.18;4.25;;;;;;;11.97;94.56;102191.91;4991017;28;21100;-83
2021/08/25 00:27:24;;;;;;;8.32;4.80;;;;;;;11.98;94.18;102190.06;4981476;28;20122;-83
2021/08/25 00:29:49;;;;;;;7.32;4.47;;;;;;;11.86;94.76;102184.81;4980079;28;20117;-83
2021/08/25 00:32:14;;;;;;;7.72;4.75;;;;;;;11.81;94.81;102181.66;4975485;28;20065;-82
2021/08/25 00:34:40;;;;;;;6.75;4.32;;;;;;;11.80;94.90;102193.41;5013801;28;20129;-82
2021/08/25 00:37:05;;;;;;;9.35;4.72;;;;;;;11.82;94.96;102194.09;4973607;28;20046;-83
2021/08/25 00:39:31;;;;;;;6.63;4.68;;;;;;;11.78;94.79;102191.84;4981324;28;20320;-83
2021/08/25 00:41:56;;;;;;;6.95;4.95;;;;;;;11.72;95.05;102191.38;4948529;28;20047;-84
2021/08/25 00:44:21;;;;;;;7.35;4.72;;;;;;;11.65;95.01;102184.00;4964569;28;20046;-83
2021/08/25 00:46:47;;;;;;;7.97;4.78;;;;;;;11.63;95.05;102186.84;4980487;28;20430;-84
2021/08/25 00:49:22;;;;;;;8.30;4.60;;;;;;;11.65;95.16;102187.56;4962855;28;20046;-84
2021/08/25 00:51:48;;;;;;;7.43;4.68;;;;;;;11.63;95.16;102186.84;4977695;28;20551;-84
2021/08/25 00:54:19;;;;;;;6.97;4.60;;;;;;;11.62;95.13;102182.44;4958937;28;20077;-82
2021/08/25 00:56:49;;;;;;;7.30;4.60;;;;;;;11.62;95.15;102185.13;4981808;28;20070;-83
2021/08/25 00:59:17;;;;;;;7.90;4.68;;;;;;;11.60;95.03;102178.22;4975783;28;20079;-84
2021/08/25 01:01:42;;;;;;;7.35;4.45;;;;;;;11.58;95.16;102183.72;4976293;28;20300;-83
2021/08/25 01:04:18;;;;;;;9.23;5.10;;;;;;;11.58;94.99;102177.50;4981218;28;20431;-83
2021/08/25 01:06:45;;;;;;;7.88;4.60;;;;;;;11.53;94.93;102173.34;4980336;28;20077;-84
2021/08/25 01:09:10;;;;;;;8.23;4.93;;;;;;;11.52;94.97;102168.13;4978198;28;20042;-82
2021/08/25 01:11:42;;;;;;;7.90;5.15;;;;;;;11.49;95.09;102166.56;4996485;28;20324;-83
2021/08/25 01:14:09;;;;;;;7.70;5.03;;;;;;;11.49;94.88;102173.78;4979612;28;20042;-82
2021/08/25 01:16:38;;;;;;;7.30;4.80;;;;;;;11.47;95.11;102167.69;4979087;28;20514;-83
2021/08/25 01:19:04;;;;;;;7.53;4.90;;;;;;;11.46;94.88;102166.84;4993735;28;20046;-83
2021/08/25 01:21:30;;;;;;;9.85;4.80;;;;;;;11.44;94.91;102162.59;4978150;28;20038;-84
2021/08/25 01:23:56;;;;;;;8.82;4.82;;;;;;;11.41;94.94;102155.63;4979479;28;20484;-82
2021/08/25 01:26:21;;;;;;;8.05;4.93;;;;;;;11.42;94.94;102151.09;4977487;28;20047;-85
2021/08/25 01:28:50;;;;;;;7.88;5.07;;;;;;;11.45;94.60;102153.53;4961338;28;20034;-82
2021/08/25 01:31:18;;;;;;;8.30;5.90;;;;;;;11.39;94.44;102154.91;4980987;28;20055;-82
2021/08/25 01:33:43;;;;;;;7.70;4.93;;;;;;;11.35;94.96;102148.13;4977514;28;20045;-83
2021/08/25 01:36:18;;;;;;;8.80;5.40;;;;;;;11.30;94.93;102148.53;4980840;28;20050;-85
2021/08/25 01:38:50;;;;;;;9.07;5.40;;;;;;;11.26;95.17;102144.41;4980164;28;20598;-83
2021/08/25 01:41:17;;;;;;;9.60;5.50;;;;;;;11.26;95.11;102143.56;4996045;28;20045;-83
2021/08/25 01:43:43;;;;;;;9.90;4.93;;;;;;;11.24;95.02;102143.69;4978984;28;20065;-83
2021/08/25 01:46:16;;;;;;;6.80;4.75;;;;;;;11.22;95.25;102144.81;4980805;28;20081;-83
2021/08/25 01:48:41;;;;;;;7.72;5.28;;;;;;;11.19;95.16;102137.03;4978028;28;20077;-84
2021/08/25 01:51:07;;;;;;;7.57;5.40;;;;;;;11.15;95.23;102140.97;4970544;28;20074;-83
2021/08/25 01:53:32;;;;;;;9.65;6.03;;;;;;;11.11;95.62;102142.25;4979425;28;20046;-83
2021/08/25 01:55:57;;;;;;;9.15;5.22;;;;;;;11.12;95.62;102139.41;4979940;28;20065;-84
2021/08/25 01:58:23;;;;;;;8.68;5.80;;;;;;;11.08;95.65;102132.63;4980438;28;20042;-82
2021/08/25 02:00:48;;;;;;;8.10;5.70;;;;;;;11.09;95.19;102136.16;4987800;28;20039;-83
2021/08/25 02:03:14;;;;;;;10.50;6.32;;;;;;;11.05;95.08;102133.75;4979385;28;20142;-83
2021/08/25 02:05:40;;;;;;;8.55;5.63;;;;;;;11.01;95.73;102121.53;4963837;28;20042;-83
2021/08/25 02:08:05;;;;;;;9.40;6.68;;;;;;;10.98;95.82;102126.34;4977961;28;20120;-84
2021/08/25 02:10:31;;;;;;;8.35;5.50;;;;;;;10.96;95.72;102131.88;4980748;28;20562;-83
2021/08/25 02:12:56;;;;;;;8.45;5.85;;;;;;;10.95;95.89;102131.97;4975797;28;20455;-82
2021/08/25 02:15:21;;;;;;;8.77;5.93;;;;;;;10.92;95.82;102122.34;4964628;28;20332;-83
2021/08/25 02:17:47;;;;;;;8.07;6.00;;;;;;;10.88;96.08;102120.94;4980081;28;20070;-82
2021/08/25 02:20:12;;;;;;;10.40;6.07;;;;;;;10.91;96.04;102114.44;4981371;28;20133;-83
2021/08/25 02:22:38;;;;;;;8.32;6.15;;;;;;;10.91;95.60;102115.28;4981918;28;21567;-84
2021/08/25 02:25:03;;;;;;;9.05;6.80;;;;;;;10.82;95.99;102111.56;4981639;28;20495;-82
2021/08/25 02:27:29;;;;;;;10.70;7.00;;;;;;;10.83;96.21;102109.75;4981736;28;20061;-84
2021/08/25 02:29:56;;;;;;;9.23;6.60;;;;;;;10.74;96.56;102111.38;4965616;28;20050;-83
2021/08/25 02:32:25;;;;;;;9.57;6.60;;;;;;;10.77;96.48;102108.44;4963694;28;20074;-83
2021/08/25 02:34:51;;;;;;;9.60;6.95;;;;;;;10.76;96.19;102106.75;4997208;28;20050;-83
2021/08/25 02:37:17;;;;;;;11.43;7.30;;;;;;;10.71;96.38;102103.59;4982438;28;20047;-83
2021/08/25 02:39:43;;;;;;;10.55;7.85;;;;;;;10.72;96.44;102099.06;4981094;28;20061;-84
2021/08/25 02:42:08;;;;;;;10.13;7.18;;;;;;;10.72;96.64;102099.06;4982243;28;20042;-83
2021/08/25 02:44:34;;;;;;;11.15;7.00;;;;;;;10.69;96.41;102102.03;4975092;28;20043;-83
2021/08/25 02:46:59;;;;;;;9.88;6.97;;;;;;;10.71;96.22;102108.13;4983911;28;20558;-82
2021/08/25 02:49:24;;;;;;;10.98;7.18;;;;;;;10.66;96.48;102099.63;4976723;28;20038;-83
2021/08/25 02:51:50;;;;;;;9.85;6.65;;;;;;;10.64;96.84;102107.78;4963522;28;20046;-82
2021/08/25 02:54:15;;;;;;;11.18;7.32;;;;;;;10.61;96.98;102100.84;4962265;28;20085;-83
2021/08/25 02:56:40;;;;;;;10.43;7.53;;;;;;;10.55;97.31;102097.84;4963114;28;20156;-83
2021/08/25 02:59:06;;;;;;;9.43;7.05;;;;;;;10.56;97.29;102089.69;4941902;28;20229;-83
2021/08/25 03:01:31;;;;;;;9.80;6.90;;;;;;;10.61;96.78;102094.63;4962046;28;20074;-83
2021/08/25 03:03:56;;;;;;;13.68;8.18;;;;;;;10.62;96.29;102088.31;4961891;28;20488;-83
2021/08/25 03:06:22;;;;;;;10.73;7.30;;;;;;;10.59;96.58;102089.41;4962953;28;20038;-83
2021/08/25 03:08:47;;;;;;;10.93;7.30;;;;;;;10.57;96.54;102083.31;4960777;28;20463;-83
2021/08/25 03:11:12;;;;;;;10.50;7.10;;;;;;;10.52;96.88;102082.84;4942500;28;20050;-83
2021/08/25 03:13:40;;;;;;;9.63;7.40;;;;;;;10.49;96.65;102083.13;4960273;28;20086;-83
2021/08/25 03:16:05;;;;;;;10.52;7.10;;;;;;;10.49;96.44;102076.91;4959145;28;20050;-83
2021/08/25 03:18:30;;;;;;;11.60;7.03;;;;;;;10.45;96.59;102070.97;4959527;28;20061;-83
2021/08/25 03:20:56;;;;;;;11.05;8.07;;;;;;;10.43;96.86;102078.28;4961693;28;20047;-83
2021/08/25 03:23:21;;;;;;;10.27;7.55;;;;;;;10.45;96.57;102076.34;4958883;28;20074;-84
2021/08/25 03:25:47;;;;;;;9.07;6.75;;;;;;;10.44;96.55;102074.63;4963610;28;20042;-83
2021/08/25 03:28:12;;;;;;;9.95;7.57;;;;;;;10.42;96.41;102070.38;4953578;28;20046;-84
2021/08/25 03:30:37;;;;;;;12.23;8.02;;;;;;;10.42;96.27;102065.88;4958014;28;20559;-84
2021/08/25 03:33:06;;;;;;;10.90;7.78;;;;;;;10.42;96.13;102065.88;4960657;28;20134;-82
2021/08/25 03:35:33;;;;;;;11.15;7.80;;;;;;;10.37;96.41;102068.94;4962889;28;20081;-82
2021/08/25 03:37:58;;;;;;;11.10;8.50;;;;;;;10.33;96.65;102069.34;4961041;28;20038;-83
2021/08/25 03:40:24;;;;;;;12.10;8.55;;;;;;;10.27;97.08;102062.69;4960350;28;20500;-82
2021/08/25 03:42:49;;;;;;;11.45;8.25;;;;;;;10.28;96.97;102061.69;4962774;28;20486;-86
2021/08/25 03:45:14;;;;;;;13.65;8.88;;;;;;;10.25;97.29;102059.22;4965629;28;20046;-83
2021/08/25 03:47:40;;;;;;;12.23;8.15;;;;;;;10.23;97.17;102049.59;4960726;28;20125;-83
2021/08/25 03:50:06;;;;;;;10.55;8.20;;;;;;;10.25;97.19;102051.19;4979700;28;20053;-83
2021/08/25 03:52:32;;;;;;;11.88;8.15;;;;;;;10.22;97.14;102064.00;4953005;28;20388;-83
2021/08/25 03:54:58;;;;;;;12.40;8.57;;;;;;;10.21;97.13;102051.56;4963104;28;20042;-83
2021/08/25 03:57:23;;;;;;;11.75;8.90;;;;;;;10.25;96.61;102053.03;4978823;28;20130;-83
2021/08/25 03:59:48;;;;;;;12.48;9.07;;;;;;;10.16;96.70;102054.66;4962577;28;20046;-83
2021/08/25 04:02:14;;;;;;;10.82;8.60;;;;;;;10.15;96.99;102053.78;4944514;28;20061;-83
2021/08/25 04:04:39;;;;;;;12.25;8.90;;;;;;;10.14;97.27;102040.50;4964201;28;20046;-84
2021/08/25 04:07:05;;;;;;;13.43;8.65;;;;;;;10.10;97.02;102039.94;4979377;28;20046;-83
2021/08/25 04:09:30;;;;;;;12.90;8.63;;;;;;;10.08;97.26;102043.72;4956367;28;20050;-87
2021/08/25 04:11:55;;;;;;;11.77;8.57;;;;;;;10.10;96.74;102045.28;4955077;28;20077;-83
2021/08/25 04:14:21;;;;;;;12.45;9.45;;;;;;;10.13;96.81;102039.66;4958771;28;20547;-83
2021/08/25 04:16:46;;;;;;;15.00;9.95;;;;;;;10.07;97.00;102039.31;4962926;28;20050;-85
2021/08/25 04:19:11;;;;;;;12.93;8.90;;;;;;;10.04;97.60;102034.22;4964092;28;20130;-83
2021/08/25 04:21:37;;;;;;;12.88;9.43;;;;;;;10.04;97.49;102035.09;4993241;28;20551;-83
2021/08/25 04:24:02;;;;;;;12.95;8.65;;;;;;;10.03;97.58;102019.13;4940468;28;20102;-82
2021/08/25 04:26:28;;;;;;;10.75;7.80;;;;;;;10.00;97.63;102028.28;4960017;28;20046;-82
2021/08/25 04:28:53;;;;;;;10.60;8.10;;;;;;;9.99;97.73;102028.41;4958543;28;20039;-83
2021/08/25 04:31:19;;;;;;;13.52;8.63;;;;;;;9.95;97.58;102014.41;4957877;28;20051;-83
2021/08/25 04:33:44;;;;;;;13.13;8.52;;;;;;;9.95;97.25;102006.34;4953640;28;20389;-83
2021/08/25 04:36:09;;;;;;;11.35;8.15;;;;;;;9.96;97.59;102008.06;4961750;28;20061;-82
2021/08/25 04:38:35;;;;;;;12.73;8.77;;;;;;;9.93;97.49;102008.34;4960624;28;20554;-83
2021/08/25 04:41:00;;;;;;;10.32;7.97;;;;;;;9.96;97.35;102010.75;4958655;28;20272;-83
2021/08/25 04:43:26;;;;;;;10.80;7.80;;;;;;;9.95;97.11;102019.75;4963627;28;20049;-83
2021/08/25 04:45:52;;;;;;;12.05;8.23;;;;;;;9.96;97.07;102016.13;4977375;28;20038;-82
2021/08/25 04:48:17;;;;;;;11.30;8.20;;;;;;;9.91;97.14;102021.00;4982075;28;20061;-83
2021/08/25 04:50:43;;;;;;;11.45;7.63;;;;;;;9.85;97.43;102024.22;4980138;28;20048;-82
2021/08/25 04:53:08;;;;;;;11.32;8.43;;;;;;;9.85;97.50;102026.91;4995113;28;20144;-82
2021/08/25 04:55:37;;;;;;;11.32;8.07;;;;;;;9.86;97.61;102034.81;4980453;28;20078;-83
2021/08/25 04:58:04;;;;;;;13.23;8.32;;;;;;;9.86;97.58;102021.38;4979112;28;20053;-83
2021/08/25 05:00:29;;;;;;;11.27;8.70;;;;;;;9.86;97.65;102026.75;4977502;28;20511;-82
2021/08/25 05:02:55;;;;;;;15.43;8.70;;;;;;;9.85;97.78;102029.59;4973956;28;20038;-84
2021/08/25 05:05:20;;;;;;;14.50;8.52;;;;;;;9.90;97.61;102030.06;4977372;28;20050;-82
2021/08/25 05:07:45;;;;;;;11.60;8.13;;;;;;;9.90;97.65;102022.00;4979487;28;20046;-83
2021/08/25 05:10:11;;;;;;;13.57;8.30;;;;;;;9.85;97.75;102024.22;4981392;28;20112;-82
2021/08/25 05:12:36;;;;;;;11.70;8.80;;;;;;;9.88;97.85;102019.44;4978510;28;20049;-83
2021/08/25 05:15:03;;;;;;;14.73;8.80;;;;;;;9.87;98.25;102014.22;4978978;28;20046;-83
2021/08/25 05:17:28;;;;;;;12.10;8.30;;;;;;;9.89;98.18;102009.56;4981428;28;20042;-84
2021/08/25 05:19:53;;;;;;;14.52;9.70;;;;;;;9.91;98.04;102010.28;4979234;28;20078;-84
2021/08/25 05:22:19;;;;;;;11.80;8.52;;;;;;;9.90;98.58;102011.28;4979459;28;20073;-83
2021/08/25 05:24:44;;;;;;;13.07;9.88;;;;;;;9.96;98.47;102010.75;4979957;28;20034;-82
2021/08/25 05:27:09;;;;;;;14.52;8.65;;;;;;;9.99;98.31;102015.84;4966211;28;20495;-84
2021/08/25 05:29:35;;;;;;;12.73;9.27;;;;;;;10.02;98.20;102012.91;4980769;28;20198;-83
2021/08/25 05:32:00;;;;;;;14.13;10.30;;;;;;;10.06;98.62;102011.66;4965174;28;20042;-82
2021/08/25 05:34:26;;;;;;;13.90;9.50;;;;;;;10.08;98.78;102015.06;4981503;28;20442;-83
2021/08/25 05:36:51;;;;;;;13.93;9.48;;;;;;;10.14;98.95;102017.22;4977537;28;20042;-82
2021/08/25 05:39:19;;;;;;;13.13;9.82;;;;;;;10.24;98.91;102027.16;4976801;28;20042;-82
2021/08/25 05:41:44;;;;;;;12.57;10.27;;;;;;;10.32;98.54;102024.69;4976978;28;20688;-83
2021/08/25 05:44:09;;;;;;;14.32;10.63;;;;;;;10.35;98.43;102021.75;4980416;28;20053;-83
2021/08/25 05:46:35;;;;;;;15.75;10.32;;;;;;;10.42;98.74;102022.09;4978066;28;20070;-83
2021/08/25 05:49:00;;;;;;;15.55;10.90;;;;;;;10.46;98.87;102027.03;4974813;28;20074;-83
2021/08/25 05:51:26;;;;;;;15.80;12.27;;;;;;;10.57;99.30;102020.75;4976406;28;20078;-83
2021/08/25 05:53:52;;;;;;;17.45;12.13;;;;;;;10.69;99.13;102027.72;4978657;28;20054;-83
2021/08/25 05:56:18;;;;;;;17.10;11.85;;;;;;;10.79;98.75;102025.09;4965093;28;20057;-83
2021/08/25 05:58:43;;;;;;;18.13;12.85;;;;;;;10.86;98.65;102020.84;4985808;28;20038;-83
2021/08/25 06:01:12;;;;;;;19.30;13.25;;;;;;;10.94;98.37;102021.03;4978158;28;20435;-84
2021/08/25 06:03:38;;;;;;;17.58;11.52;;;;;;;11.05;98.63;102020.91;4982440;28;20047;-83
2021/08/25 06:06:03;;;;;;;18.08;14.20;;;;;;;11.20;98.28;102017.84;4981442;28;20056;-83
2021/08/25 06:08:29;;;;;;;17.67;13.65;;;;;;;11.28;98.41;102012.63;4977816;28;20049;-83
2021/08/25 06:10:54;;;;;;;21.13;14.93;;;;;;;11.39;98.92;102028.59;4984133;28;20466;-83
2021/08/25 06:13:19;;;;;;;21.85;14.75;;;;;;;11.47;99.05;102017.16;4977399;28;20054;-83
2021/08/25 06:15:45;;;;;;;20.90;15.15;;;;;;;11.61;98.47;102018.59;4979057;28;20042;-83
2021/08/25 06:18:10;;;;;;;20.90;15.35;;;;;;;11.70;98.25;102020.41;4979086;28;20133;-83
2021/08/25 06:20:36;;;;;;;18.98;15.07;;;;;;;11.81;98.07;102019.44;4980156;28;20173;-84
2021/08/25 06:23:01;;;;;;;24.27;16.05;;;;;;;11.96;97.66;102015.34;4979854;28;20050;-84
2021/08/25 06:25:27;;;;;;;19.60;15.13;;;;;;;12.10;97.02;102011.34;4997378;28;20054;-83
2021/08/25 06:27:52;;;;;;;20.77;16.77;;;;;;;12.26;95.59;102017.00;4982690;28;20042;-83
2021/08/25 06:30:18;;;;;;;22.20;16.73;;;;;;;12.41;94.62;102010.13;4980342;28;20567;-83
2021/08/25 06:32:43;;;;;;;24.23;17.58;;;;;;;12.53;95.55;102007.28;4983831;28;20057;-83
2021/08/25 06:35:09;;;;;;;22.85;16.88;;;;;;;12.64;96.05;102009.78;4983939;28;20077;-83
2021/08/25 06:37:34;;;;;;;21.70;16.15;;;;;;;12.77;95.80;102006.72;4985985;28;20045;-83
2021/08/25 06:39:59;;;;;;;23.02;16.95;;;;;;;12.94;95.56;102005.09;4983881;28;20061;-83
2021/08/25 06:42:25;;;;;;;21.83;15.30;;;;;;;13.05;94.76;102007.56;4996554;28;20046;-83
2021/08/25 06:44:51;;;;;;;22.33;14.80;;;;;;;13.19;94.58;102009.75;4980851;28;20260;-84
2021/08/25 06:47:17;;;;;;;17.85;13.10;;;;;;;13.37;93.07;102008.97;4983726;28;20047;-84
2021/08/25 06:49:42;;;;;;;18.65;13.05;;;;;;;13.49;92.82;102005.03;5016668;28;20061;-83
2021/08/25 06:52:07;;;;;;;19.45;13.45;;;;;;;13.62;90.47;102002.81;4980436;28;20062;-83
2021/08/25 06:54:33;;;;;;;17.95;12.93;;;;;;;13.77;91.16;102009.34;4980741;28;20046;-83
2021/08/25 06:56:58;;;;;;;20.77;13.40;;;;;;;13.89;91.74;102012.63;4982359;28;20230;-84
2021/08/25 06:59:23;;;;;;;18.30;12.52;;;;;;;14.04;91.12;102007.56;4982404;28;20053;-83
2021/08/25 07:01:49;;;;;;;16.88;11.95;;;;;;;14.18;90.53;102009.69;4983794;28;20603;-83
2021/08/25 07:04:14;;;;;;;15.95;12.32;;;;;;;14.34;89.07;102002.69;4980955;28;20587;-83
2021/08/25 07:06:39;;;;;;;16.58;11.23;;;;;;;14.44;88.59;102006.09;4964447;28;20038;-84
2021/08/25 07:09:05;;;;;;;15.30;10.73;;;;;;;14.51;87.29;102007.16;4976259;28;20072;-83
2021/08/25 07:11:31;;;;;;;15.48;11.10;;;;;;;14.68;88.82;102002.72;4980476;28;20590;-84
2021/08/25 07:13:56;;;;;;;16.30;11.30;;;;;;;14.79;88.22;101998.91;4991627;28;20573;-84
2021/08/25 07:16:21;;;;;;;15.38;10.50;;;;;;;14.87;87.29;101997.06;4966006;28;20144;-83
2021/08/25 07:18:47;;;;;;;17.30;10.55;;;;;;;15.01;86.54;101990.16;4977906;28;20133;-83
2021/08/25 07:21:13;;;;;;;14.20;9.88;;;;;;;15.16;85.82;101994.94;4980837;28;20066;-84
2021/08/25 07:23:39;;;;;;;14.63;9.10;;;;;;;15.27;84.52;101992.75;4981735;28;20132;-84
2021/08/25 07:26:04;;;;;;;14.98;8.10;;;;;;;15.40;82.46;101991.47;4978651;28;20065;-83
2021/08/25 07:28:30;;;;;;;13.27;8.13;;;;;;;15.61;82.99;101988.25;4983104;28;20050;-84
2021/08/25 07:30:55;;;;;;;11.60;8.10;;;;;;;15.78;81.87;101981.88;4978919;28;20547;-84
2021/08/25 07:33:22;;;;;;;12.38;7.80;;;;;;;15.96;81.83;101987.94;4996121;28;20050;-84
2021/08/25 07:35:48;;;;;;;11.30;7.07;;;;;;;16.07;80.75;101977.78;4993299;28;20121;-83
2021/08/25 07:38:16;;;;;;;13.52;8.85;;;;;;;16.17;79.07;101976.59;4965835;28;20137;-83
2021/08/25 07:40:42;;;;;;;13.63;8.82;;;;;;;16.29;78.13;101985.19;4987621;28;20038;-84
2021/08/25 07:43:09;;;;;;;11.77;7.88;;;;;;;16.39;78.62;101972.28;4981202;28;20149;-83
2021/08/25 07:45:36;;;;;;;11.60;6.78;;;;;;;16.43;75.67;101970.94;4983055;28;20046;-85
2021/08/25 07:48:01;;;;;;;10.90;7.15;;;;;;;16.49;75.78;101972.09;4982470;28;20189;-84
2021/08/25 07:50:27;;;;;;;9.95;6.07;;;;;;;16.58;73.97;101971.03;4983120;28;20125;-84
2021/08/25 07:52:52;;;;;;;9.57;6.97;;;;;;;16.67;75.99;101969.13;4959778;28;20057;-83
2021/08/25 07:55:17;;;;;;;12.10;8.52;;;;;;;16.75;77.02;101974.53;4937304;28;20391;-84
2021/08/25 07:57:43;;;;;;;10.80;6.53;;;;;;;16.78;75.93;101971.50;4960277;28;20627;-84
2021/08/25 08:00:09;;;;;;;11.52;8.18;;;;;;;16.89;75.80;101967.56;4946126;28;20067;-84
2021/08/25 08:02:34;;;;;;;12.00;7.60;;;;;;;16.97;74.58;101978.34;4954224;28;20116;-84
2021/08/25 08:05:00;;;;;;;10.10;6.78;;;;;;;17.05;74.84;101972.88;4943167;28;20043;-83
2021/08/25 08:07:25;;;;;;;9.60;6.40;;;;;;;17.21;74.73;101971.94;4958870;28;20655;-83
2021/08/25 08:09:51;;;;;;;9.93;5.85;;;;;;;17.31;74.89;101969.81;4960745;28;20395;-84
2021/08/25 08:12:16;;;;;;;9.93;6.20;;;;;;;17.32;73.92;101968.81;4960909;28;20507;-84
2021/08/25 08:14:41;;;;;;;7.93;5.70;;;;;;;17.38;71.75;101967.25;4986169;28;20093;-84
2021/08/25 08:17:07;;;;;;;8.35;4.88;;;;;;;17.47;71.62;101955.31;4948748;28;20058;-84
2021/08/25 08:19:33;;;;;;;8.10;4.70;;;;;;;17.54;70.32;101947.28;4977025;28;20059;-84
2021/08/25 08:22:01;;;;;;;7.90;4.80;;;;;;;17.60;68.59;101949.25;4960973;28;20059;-84
2021/08/25 08:24:27;;;;;;;7.55;4.32;;;;;;;17.62;69.03;101947.22;4963082;28;20069;-84
2021/08/25 08:26:53;;;;;;;7.00;4.22;;;;;;;17.74;68.58;101948.44;4954802;28;20047;-84
2021/08/25 08:29:19;;;;;;;7.85;4.15;;;;;;;17.78;67.36;101951.66;4960595;28;20392;-84
2021/08/25 08:31:44;;;;;;;7.50;4.40;;;;;;;17.83;68.05;101945.69;4959472;28;20250;-85
2021/08/25 08:34:10;;;;;;;7.57;3.88;;;;;;;17.92;67.17;101947.31;4943906;28;20073;-84
2021/08/25 08:36:35;;;;;;;8.05;4.90;;;;;;;17.99;68.75;101948.25;4954713;28;20104;-84
2021/08/25 08:39:01;;;;;;;5.57;3.67;;;;;;;18.11;67.02;101945.94;4960109;28;21022;-84
2021/08/25 08:41:26;;;;;;;7.32;4.07;;;;;;;18.13;66.76;101938.44;4957944;28;20046;-84
2021/08/25 08:43:53;;;;;;;6.07;3.40;;;;;;;18.18;64.22;101947.72;4944618;28;20523;-84
2021/08/25 08:46:20;;;;;;;6.53;3.58;;;;;;;18.25;64.96;101940.50;4989316;28;20070;-84
2021/08/25 08:48:47;;;;;;;5.18;3.42;;;;;;;18.36;63.37;101935.63;4980846;28;20133;-84
2021/08/25 08:51:20;;;;;;;6.70;3.78;;;;;;;18.36;64.63;101932.94;4980353;28;20054;-85
2021/08/25 08:53:47;;;;;;;6.75;3.83;;;;;;;18.55;66.37;101937.75;4974148;28;20031;-84
2021/08/25 08:56:13;;;;;;;5.47;3.10;;;;;;;18.63;63.49;101929.50;4976794;28;20044;-84
2021/08/25 08:58:42;;;;;;;6.22;3.40;;;;;;;18.63;63.26;101929.50;4979638;28;20050;-83
2021/08/25 09:01:08;;;;;;;;;;;;;;;18.60;63.60;101924.44;4982041;28;20133;-84
2021/08/25 09:03:35;;;;;;;6.22;3.65;;;;;;;18.53;63.61;101930.81;4993961;28;20032;-84
2021/08/25 09:06:02;;;;;;;6.32;3.72;;;;;;;18.64;63.63;101925.78;4977405;28;20046;-84
2021/08/25 09:08:30;;;;;;;8.13;4.05;;;;;;;18.82;64.44;101921.84;4981355;28;20045;-84
2021/08/25 09:11:00;;;;;;;5.68;3.50;;;;;;;18.90;62.90;101918.97;4978455;28;20104;-85
2021/08/25 09:13:47;;;;;;;5.63;3.47;;;;;;;18.87;62.60;101917.50;4976439;28;20495;-84
2021/08/25 09:16:28;;;;;;;7.30;4.07;;;;;;;18.85;61.41;101905.13;4994230;28;20038;-84
2021/08/25 09:19:15;;;;;;;6.25;3.20;;;;;;;18.95;62.57;101908.38;4990575;28;20498;-84
2021/08/25 09:21:52;;;;;;;5.95;3.38;;;;;;;18.99;63.15;101906.09;4988810;28;20240;-84
2021/08/25 09:24:23;;;;;;;6.68;3.78;;;;;;;18.98;61.20;101902.53;4962390;28;20049;-84
2021/08/25 09:27:08;;;;;;;5.95;3.97;;;;;;;19.06;62.59;101909.75;4994298;28;20049;-84
2021/08/25 09:29:35;;;;;;;6.03;3.33;;;;;;;19.20;62.76;101894.41;4993234;28;20046;-84
2021/08/25 09:32:01;;;;;;;5.75;3.40;;;;;;;19.32;60.13;101898.28;4972154;28;20054;-85
2021/08/25 09:34:29;;;;;;;6.05;3.53;;;;;;;19.34;60.55;101904.38;4979985;28;20097;-84
2021/08/25 09:37:17;;;;;;;5.82;3.28;;;;;;;19.39;60.12;101901.88;4979698;28;20054;-84
2021/08/25 09:39:45;;;;;;;6.87;3.40;;;;;;;19.33;59.42;101903.53;4992797;28;20124;-84
2021/08/25 09:42:13;;;;;;;6.90;3.33;;;;;;;19.38;60.02;101906.50;4994850;28;20462;-84
2021/08/25 09:44:39;;;;;;;5.53;3.67;;;;;;;19.43;60.40;101913.25;4977185;28;20073;-84
2021/08/25 09:47:05;;;;;;;5.65;3.05;;;;;;;19.49;59.70;101907.00;4979761;28;20203;-85
2021/08/25 09:49:30;;;;;;;5.50;3.15;;;;;;;19.59;59.08;101912.94;4979533;28;20089;-84
2021/08/25 09:51:56;;;;;;;5.55;3.05;;;;;;;19.69;57.83;101913.50;4943260;28;20116;-85
2021/08/25 09:54:22;;;;;;;4.75;3.20;;;;;;;19.71;58.26;101902.38;4946465;28;20100;-84
2021/08/25 09:56:52;;;;;;;6.90;3.83;;;;;;;19.71;57.73;101900.53;4977401;28;20589;-85
2021/08/25 09:59:18;;;;;;;6.38;3.75;;;;;;;19.85;59.67;101898.72;4961204;28;20101;-84
2021/08/25 10:01:45;;;;;;;6.70;3.63;;;;;;;19.89;57.62;101899.19;4959629;28;20042;-84
2021/08/25 10:04:14;;;;;;;7.72;3.33;;;;;;;19.94;58.50;101900.28;4976469;28;20629;-84
2021/08/25 10:06:47;;;;;;;6.43;4.10;;;;;;;19.89;58.84;101897.31;4974908;28;20141;-84
2021/08/25 10:09:14;;;;;;;7.07;3.80;;;;;;;19.88;58.98;101890.19;4959397;28;21003;-84
2021/08/25 10:11:45;;;;;;;7.60;3.60;;;;;;;19.96;59.16;101890.00;4960336;28;20042;-85
2021/08/25 10:14:13;;;;;;;8.45;4.13;;;;;;;19.97;58.05;101877.25;4973033;28;20296;-84
2021/08/25 10:16:47;;;;;;;7.47;4.05;;;;;;;19.90;58.86;101871.72;4961993;28;20507;-84
2021/08/25 10:19:30;;;;;;;7.57;4.68;;;;;;;19.97;59.12;101864.47;4990247;28;20530;-85
2021/08/25 10:22:19;;;;;;;8.98;4.82;;;;;;;20.03;58.87;101866.38;4980359;28;20050;-85
2021/08/25 10:24:53;;;;;;;;;;;;;;;20.11;59.20;101867.25;4975609;28;20096;-85
2021/08/25 10:27:23;;;;;;;6.90;3.80;;;;;;;20.05;58.57;101864.31;4995062;28;19926;-84
2021/08/25 10:30:01;;;;;;;6.07;3.53;;;;;;;20.06;57.41;101852.34;4978749;28;20343;-85
2021/08/25 10:32:26;;;;;;;7.07;3.40;;;;;;;20.24;58.51;101856.41;4978335;28;20070;-84
2021/08/25 10:35:18;;;;;;;8.05;3.85;;;;;;;20.28;58.27;101852.22;4982053;28;20073;-85
2021/08/25 10:37:45;;;;;;;7.03;3.97;;;;;;;20.33;57.37;101838.84;4952903;28;20076;-85
2021/08/25 10:40:11;;;;;;;7.45;4.15;;;;;;;20.36;55.55;101832.97;4997072;28;20236;-84
2021/08/25 10:42:46;;;;;;;6.80;3.97;;;;;;;20.40;57.86;101839.72;4982475;28;20413;-84
2021/08/25 10:45:13;;;;;;;6.03;3.25;;;;;;;20.46;56.30;101833.44;4980148;28;20039;-84
2021/08/25 10:47:59;;;;;;;7.50;4.05;;;;;;;20.48;58.30;101827.78;4996420;28;20543;-84
2021/08/25 10:50:50;;;;;;;7.82;4.10;;;;;;;20.52;57.92;101826.34;4998278;28;20137;-85
2021/08/25 10:53:27;;;;;;;7.75;4.15;;;;;;;20.49;56.36;101822.13;4980693;28;20101;-85
2021/08/25 10:56:06;;;;;;;7.63;4.05;;;;;;;20.66;57.57;101821.81;4984286;28;20050;-85
2021/08/25 10:58:43;;;;;;;10.07;3.92;;;;;;;20.67;56.03;101818.00;4997821;28;20411;-84
2021/08/25 11:01:22;;;;;;;9.95;4.50;;;;;;;20.82;57.42;101820.56;4982301;28;20042;-84
2021/08/25 11:03:49;;;;;;;;;;;;;;;20.89;55.84;101794.97;4982865;28;20452;-84
2021/08/25 11:06:32;;;;;;;6.55;3.80;;;;;;;20.85;57.93;101810.06;4980160;28;19922;-85
2021/08/25 11:09:11;;;;;;;7.75;4.78;;;;;;;20.90;57.03;101804.84;4983977;28;20045;-85
2021/08/25 11:11:37;;;;;;;7.10;4.65;;;;;;;20.96;57.40;101803.16;4964878;28;20423;-84
2021/08/25 11:14:02;;;;;;;9.30;5.22;;;;;;;20.99;57.76;101789.09;4981868;28;20058;-85
2021/08/25 11:16:28;;;;;;;9.57;4.32;;;;;;;20.92;57.15;101789.09;4981282;28;20299;-85
2021/08/25 11:18:53;;;;;;;8.25;5.65;;;;;;;21.10;58.65;101784.91;4965122;28;20066;-84
2021/08/25 11:21:18;;;;;;;8.73;5.47;;;;;;;21.27;58.20;101785.31;4960726;28;20042;-85